Overview Statistics Trail Chart Weather Telemetry Raw packets
 

This is the latest recevied weather packets stored in our database for station/object EA4HRG-10. If no packets are shown the sender has not sent any weather packets the latest 10 day(s).

<< 27 28 29 30 31 32 >>
Time Temp. Humidity Pressure Rain* Wind** Luminosity Snow
1787993737 27.78° C 27% 1017 hPa - - - -
1787992837 24.44° C 33% 1018.3 hPa - - - -
1787991937 16.11° C 51% 1021.4 hPa - - - -
1787991037 13.89° C 56% 1022.2 hPa - - - -
1787990080 12.78° C 59% 1022.8 hPa - - - -
1787989720 12.22° C 61% 1023 hPa - - - -
1787988820 11.11° C 63% 1023.5 hPa - - - -
1787987920 10° C 67% 1024 hPa - - - -
1787987020 9.44° C 69% 1024.4 hPa - - - -
1787986120 8.33° C 71% 1024.7 hPa - - - -
1787985220 7.78° C 72% 1025 hPa - - - -
1787984320 7.22° C 73% 1025 hPa - - - -
1787983420 6.67° C 74% 1025.1 hPa - - - -
1787982520 6.67° C 73% 1025 hPa - - - -
1787981620 7.22° C 73% 1024.8 hPa - - - -
1787980720 6.67° C 73% 1024.9 hPa - - - -
1787979820 6.67° C 73% 1024.8 hPa - - - -
1787978920 7.22° C 72% 1024.7 hPa - - - -
1787978021 7.22° C 72% 1024.6 hPa - - - -
1787977121 7.22° C 71% 1024.5 hPa - - - -
1787976220 7.22° C 69% 1024.2 hPa - - - -
1787975320 7.22° C 69% 1024.2 hPa - - - -
1787974420 7.78° C 68% 1024.1 hPa - - - -
1787973520 7.78° C 68% 1023.9 hPa - - - -
1787972621 8.33° C 67% 1023.7 hPa - - - -

* Rain since midnight (hover to see other rain measurements)
** Current wind speed in m/s (hover to see current wind gust speed)